ADDS METAR Data INFO
IDs: Format: Raw Decoded Include TAF

Data at: 1843 UTC 16 Dec 2017

KUOX 161835Z AUTO 20007G12KT 180V240 10SM CLR 11/M03 A3023 RMK AO2
KUOX 161815Z AUTO VRB05KT 10SM CLR 11/M02 A3023 RMK AO2
KUOX 161755Z AUTO 24006G12KT 10SM CLR 10/M02 A3025 RMK AO2
KUOX 161735Z AUTO 23008KT 10SM CLR 10/M02 A3026 RMK AO2
KUOX 161715Z AUTO 21009KT 10SM CLR 09/M02 A3028 RMK AO2
KUOX 161655Z AUTO 21007KT 10SM CLR 09/M02 A3028 RMK AO2
KUOX 161635Z AUTO 23006G12KT 10SM CLR 08/M02 A3029 RMK AO2
KUOX 161615Z AUTO 20007KT 150V270 10SM CLR 08/M02 A3030 RMK AO2
KUOX 161555Z AUTO VRB06G12KT 10SM CLR 07/M02 A3030 RMK AO2
KUOX 161535Z AUTO VRB06KT 10SM CLR 06/M03 A3030 RMK AO2
KUOX 161515Z AUTO VRB06KT 10SM CLR 05/M03 A3029 RMK AO2
KUOX 161455Z AUTO VRB05G12KT 10SM CLR 04/M03 A3029 RMK AO2
KUOX 161435Z AUTO VRB06G12KT 10SM CLR 03/M03 A3030 RMK AO2
KUOX 161415Z AUTO VRB04KT 10SM CLR 01/M04 A3028 RMK AO2
KUOX 161355Z AUTO VRB03KT 10SM CLR 00/M04 A3028 RMK AO2
KUOX 161335Z AUTO VRB03KT 10SM CLR M01/M04 A3028 RMK AO2
KUOX 161315Z AUTO VRB03KT 10SM CLR M01/M04 A3028 RMK AO2
KUOX 161255Z AUTO 19003KT 10SM CLR M01/M04 A3027 RMK AO2
KUOX 161235Z AUTO 00000KT 10SM CLR M01/M04 A3026 RMK AO2
KUOX 161215Z AUTO VRB03KT 10SM CLR M01/M04 A3026 RMK AO2
KUOX 161155Z AUTO VRB03KT 10SM CLR M01/M04 A3026 RMK AO2
KUOX 161135Z AUTO 00000KT 10SM CLR M01/M04 A3025 RMK AO2
KUOX 161115Z AUTO VRB03KT 10SM CLR M01/M04 A3024 RMK AO2
KUOX 161055Z AUTO 00000KT 10SM CLR M01/M04 A3023 RMK AO2
KUOX 161035Z AUTO 18004KT 10SM FEW034 FEW040 M02/M04 A3024 RMK AO2
KUOX 161015Z AUTO VRB03KT 10SM FEW039 FEW048 M02/M04 A3024 RMK AO2
KUOX 160955Z AUTO 00000KT 10SM CLR M01/M04 A3025 RMK AO2
KUOX 160935Z AUTO 18003KT 10SM CLR M02/M04 A3025 RMK AO2
KUOX 160915Z AUTO 00000KT 10SM CLR M01/M04 A3026 RMK AO2
KUOX 160855Z AUTO 00000KT 10SM FEW046 M02/M04 A3026 RMK AO2
KUOX 160835Z AUTO 16003KT 10SM CLR M02/M04 A3026 RMK AO2
KUOX 160815Z AUTO 00000KT 10SM CLR M02/M04 A3026 RMK AO2
KUOX 160755Z AUTO 00000KT 10SM CLR M02/M04 A3026 RMK AO2
KUOX 160735Z AUTO 00000KT 10SM CLR M01/M04 A3025 RMK AO2
KUOX 160715Z AUTO 00000KT 10SM CLR M01/M04 A3025 RMK AO2
KUOX 160655Z AUTO 00000KT 10SM CLR M01/M04 A3025 RMK AO2
KUOX 160635Z AUTO 00000KT 10SM CLR M01/M04 A3024 RMK AO2
KUOX 160615Z AUTO 00000KT 10SM CLR M02/M04 A3025 RMK AO2
KUOX 160555Z AUTO 16004KT 10SM CLR M02/M04 A3025 RMK AO2
KUOX 160535Z AUTO 00000KT 10SM FEW039 M02/M04 A3025 RMK AO2
KUOX 160515Z AUTO 00000KT 10SM FEW037 M01/M04 A3025 RMK AO2
KUOX 160455Z AUTO 00000KT 10SM CLR M01/M04 A3025 RMK AO2
KUOX 160435Z AUTO VRB03KT 10SM FEW033 FEW047 M02/M04 A3025 RMK AO2
KUOX 160415Z AUTO 00000KT 10SM CLR M02/M04 A3025 RMK AO2
KUOX 160355Z AUTO 00000KT 10SM CLR M01/M04 A3025 RMK AO2
KUOX 160335Z AUTO 00000KT 10SM CLR M01/M04 A3025 RMK AO2
KUOX 160315Z AUTO 00000KT 10SM CLR M01/M04 A3025 RMK AO2
KUOX 160255Z AUTO 00000KT 10SM CLR M01/M04 A3025 RMK AO2
KUOX 160235Z AUTO 22003KT 10SM CLR 00/M04 A3025 RMK AO2
KUOX 160215Z AUTO 00000KT 10SM CLR 01/M04 A3025 RMK AO2
KUOX 160155Z AUTO 00000KT 10SM CLR 02/M04 A3024 RMK AO2
KUOX 160135Z AUTO 21003KT 10SM CLR 02/M04 A3024 RMK AO2
KUOX 160115Z AUTO 21004KT 10SM BKN032 SCT038 02/M04 A3024 RMK AO2
KUOX 160055Z AUTO 20004KT 10SM OVC031 02/M04 A3024 RMK AO2
KUOX 160035Z AUTO 21003KT 10SM BKN032 02/M03 A3023 RMK AO2
KUOX 160015Z AUTO 21004KT 10SM CLR 02/M03 A3022 RMK AO2
KUOX 152355Z AUTO 20004KT 10SM FEW039 02/M03 A3023 RMK AO2
KUOX 152335Z AUTO 00000KT 10SM CLR 02/M03 A3021 RMK AO2
KUOX 152315Z AUTO 00000KT 10SM CLR 03/M03 A3021 RMK AO2
KUOX 152255Z AUTO 23003KT 10SM CLR 04/M04 A3021 RMK AO2
KUOX 152235Z AUTO 00000KT 10SM CLR 06/M04 A3021 RMK AO2
KUOX 152215Z AUTO 00000KT 10SM CLR 06/M04 A3021 RMK AO2
KUOX 152155Z AUTO 00000KT 10SM CLR 07/M04 A3021 RMK AO2
KUOX 152135Z AUTO 32006KT 10SM CLR 07/M04 A3020 RMK AO2
KUOX 152115Z AUTO 28005KT 10SM CLR 07/M04 A3021 RMK AO2
KUOX 152055Z AUTO 30004KT 10SM CLR 07/M04 A3021 RMK AO2
KUOX 152035Z AUTO VRB06KT 10SM CLR 07/M04 A3021 RMK AO2
KUOX 152015Z AUTO 00000G11KT 10SM CLR 07/M05 A3021 RMK AO2
KUOX 151955Z AUTO 00000KT 10SM CLR 06/M05 A3021 RMK AO2
KUOX 151935Z AUTO VRB03KT 10SM CLR 06/M04 A3021 RMK AO2
KUOX 151915Z AUTO 00000KT 10SM CLR 06/M05 A3022 RMK AO2
KUOX 151855Z AUTO 32007KT 10SM CLR 05/M04 A3022 RMK AO2
KUOX 151835Z AUTO 00000KT 10SM CLR 05/M05 A3024 RMK AO2
KUOX 151815Z AUTO 30004KT 10SM CLR 04/M05 A3024 RMK AO2
KUOX 151755Z AUTO 02004KT 10SM CLR 04/M05 A3024 RMK AO2
KUOX 151735Z AUTO 00000KT 10SM CLR 03/M04 A3026 RMK AO2
KUOX 151715Z AUTO 00000KT 9SM CLR 03/M04 A3027 RMK AO2
KUOX 151655Z AUTO 00000KT 10SM CLR 02/M04 A3028 RMK AO2
KUOX 151635Z AUTO 00000KT 10SM CLR 01/M04 A3028 RMK AO2
KUOX 151615Z AUTO 32004KT 10SM CLR 01/M03 A3028 RMK AO2
KUOX 151555Z AUTO 00000KT 10SM CLR 01/M03 A3027 RMK AO2 LTG DSNT NE
KUOX 151535Z AUTO 00000KT 9SM CLR M00/M03 A3027 RMK AO2
KUOX 151515Z AUTO 00000KT 10SM CLR M00/M03 A3027 RMK AO2
KUOX 151455Z AUTO 00000KT 10SM CLR M01/M03 A3026 RMK AO2
KUOX 151435Z AUTO 32003KT 10SM CLR M01/M03 A3025 RMK AO2
KUOX 151415Z AUTO 00000KT 9SM CLR M02/M03 A3024 RMK AO2
KUOX 151355Z AUTO 00000KT 10SM CLR M03/M04 A3023 RMK AO2
KUOX 151335Z AUTO 00000KT 10SM CLR M03/M04 A3022 RMK AO2
KUOX 151315Z AUTO 00000KT 9SM CLR M04/M05 A3022 RMK AO2
KUOX 151255Z AUTO 00000KT 10SM CLR M04/M05 A3021 RMK AO2
KUOX 151235Z AUTO 00000KT 10SM CLR M04/M05 A3021 RMK AO2
KUOX 151215Z AUTO 00000KT 10SM CLR M04/M05 A3019 RMK AO2
KUOX 151155Z AUTO 00000KT 10SM CLR M04/M05 A3019 RMK AO2
KUOX 151135Z AUTO 00000KT 10SM CLR M04/M05 A3018 RMK AO2
KUOX 151115Z AUTO 00000KT 10SM CLR M04/M05 A3017 RMK AO2
KUOX 151055Z AUTO 00000KT 10SM CLR M04/M05 A3017 RMK AO2
KUOX 151035Z AUTO 00000KT 10SM CLR M04/M05 A3016 RMK AO2
KUOX 151015Z AUTO 00000KT 10SM FEW043 M04/M05 A3016 RMK AO2
KUOX 150955Z AUTO 00000KT 10SM CLR M04/M05 A3016 RMK AO2
KUOX 150935Z AUTO 00000KT 10SM FEW043 M03/M05 A3015 RMK AO2
KUOX 150915Z AUTO 00000KT 10SM CLR M03/M05 A3015 RMK AO2
KUOX 150855Z AUTO 00000KT 10SM CLR M03/M04 A3015 RMK AO2
KUOX 150835Z AUTO 00000KT 10SM CLR M03/M04 A3014 RMK AO2
KUOX 150815Z AUTO 00000KT 10SM CLR M03/M04 A3013 RMK AO2
KUOX 150755Z AUTO 00000KT 10SM FEW045 M03/M04 A3014 RMK AO2
KUOX 150735Z AUTO 00000KT 10SM FEW038 M02/M04 A3015 RMK AO2
KUOX 150715Z AUTO 00000KT 10SM CLR M02/M04 A3014 RMK AO2
KUOX 150655Z AUTO 00000KT 10SM CLR M02/M04 A3014 RMK AO2